sensor_id;sensor_type;location;lat;lon;timestamp;pressure;altitude;pressure_sealevel;temperature;humidity
8641;BME280;4358;42.100;25.222;2022-12-07T00:00:45;100255.84;;;9.84;100.00
8641;BME280;4358;42.100;25.222;2022-12-07T00:03:12;100257.44;;;9.86;100.00
8641;BME280;4358;42.100;25.222;2022-12-07T00:05:40;100267.97;;;9.88;100.00
8641;BME280;4358;42.100;25.222;2022-12-07T00:08:07;100264.28;;;9.90;100.00
8641;BME280;4358;42.100;25.222;2022-12-07T00:10:34;100271.94;;;9.95;100.00
8641;BME280;4358;42.100;25.222;2022-12-07T00:13:01;100269.19;;;9.82;100.00
8641;BME280;4358;42.100;25.222;2022-12-07T00:15:28;100272.84;;;9.79;100.00
8641;BME280;4358;42.100;25.222;2022-12-07T00:17:55;100274.06;;;9.74;100.00
8641;BME280;4358;42.100;25.222;2022-12-07T00:20:21;100273.84;;;9.63;100.00
8641;BME280;4358;42.100;25.222;2022-12-07T00:22:50;100274.78;;;9.62;100.00
8641;BME280;4358;42.100;25.222;2022-12-07T00:25:17;100268.28;;;9.52;100.00
8641;BME280;4358;42.100;25.222;2022-12-07T00:27:43;100271.22;;;9.47;100.00
8641;BME280;4358;42.100;25.222;2022-12-07T00:30:10;100271.63;;;9.40;100.00
8641;BME280;4358;42.100;25.222;2022-12-07T00:32:38;100270.00;;;9.37;100.00
8641;BME280;4358;42.100;25.222;2022-12-07T00:35:05;100272.13;;;9.46;100.00
8641;BME280;4358;42.100;25.222;2022-12-07T00:37:32;100271.03;;;9.50;100.00
8641;BME280;4358;42.100;25.222;2022-12-07T00:40:00;100273.34;;;9.41;100.00
8641;BME280;4358;42.100;25.222;2022-12-07T00:42:27;100274.63;;;9.33;100.00
8641;BME280;4358;42.100;25.222;2022-12-07T00:44:54;100267.25;;;9.39;100.00
8641;BME280;4358;42.100;25.222;2022-12-07T00:47:21;100267.34;;;9.37;100.00
8641;BME280;4358;42.100;25.222;2022-12-07T00:49:47;100264.88;;;9.34;100.00
8641;BME280;4358;42.100;25.222;2022-12-07T00:52:14;100271.22;;;9.31;100.00
8641;BME280;4358;42.100;25.222;2022-12-07T00:54:41;100269.66;;;9.27;100.00
8641;BME280;4358;42.100;25.222;2022-12-07T00:57:09;100265.56;;;9.22;100.00
8641;BME280;4358;42.100;25.222;2022-12-07T00:59:36;100265.56;;;9.22;100.00
8641;BME280;4358;42.100;25.222;2022-12-07T01:02:03;100261.63;;;9.13;100.00
8641;BME280;4358;42.100;25.222;2022-12-07T01:04:30;100271.88;;;9.19;100.00
8641;BME280;4358;42.100;25.222;2022-12-07T01:06:59;100267.59;;;9.17;100.00
8641;BME280;4358;42.100;25.222;2022-12-07T01:09:26;100268.56;;;9.00;100.00
8641;BME280;4358;42.100;25.222;2022-12-07T01:11:53;100259.72;;;8.84;100.00
8641;BME280;4358;42.100;25.222;2022-12-07T01:14:21;100262.38;;;8.84;100.00
8641;BME280;4358;42.100;25.222;2022-12-07T01:16:48;100261.41;;;8.85;100.00
8641;BME280;4358;42.100;25.222;2022-12-07T01:19:15;100263.31;;;8.83;100.00
8641;BME280;4358;42.100;25.222;2022-12-07T01:21:42;100257.31;;;8.95;100.00
8641;BME280;4358;42.100;25.222;2022-12-07T01:24:09;100253.41;;;8.86;100.00
8641;BME280;4358;42.100;25.222;2022-12-07T01:26:37;100251.78;;;8.84;100.00
8641;BME280;4358;42.100;25.222;2022-12-07T01:29:04;100251.69;;;8.85;100.00
8641;BME280;4358;42.100;25.222;2022-12-07T01:31:32;100255.09;;;8.72;100.00
8641;BME280;4358;42.100;25.222;2022-12-07T01:33:59;100246.56;;;8.82;100.00
8641;BME280;4358;42.100;25.222;2022-12-07T01:36:28;100247.25;;;8.86;100.00
8641;BME280;4358;42.100;25.222;2022-12-07T01:38:57;100248.63;;;8.77;100.00
8641;BME280;4358;42.100;25.222;2022-12-07T01:41:25;100237.81;;;8.65;100.00
8641;BME280;4358;42.100;25.222;2022-12-07T01:44:16;100236.47;;;8.58;100.00
8641;BME280;4358;42.100;25.222;2022-12-07T01:46:45;100226.34;;;8.48;100.00
8641;BME280;4358;42.100;25.222;2022-12-07T01:49:17;100224.13;;;8.41;100.00
8641;BME280;4358;42.100;25.222;2022-12-07T01:51:46;100221.72;;;8.36;100.00
8641;BME280;4358;42.100;25.222;2022-12-07T01:54:15;100229.97;;;8.30;100.00
8641;BME280;4358;42.100;25.222;2022-12-07T01:56:47;100214.31;;;8.26;100.00
8641;BME280;4358;42.100;25.222;2022-12-07T01:59:16;100214.22;;;8.27;100.00
8641;BME280;4358;42.100;25.222;2022-12-07T02:01:45;100217.72;;;8.28;100.00
8641;BME280;4358;42.100;25.222;2022-12-07T02:04:13;100218.69;;;8.27;100.00
8641;BME280;4358;42.100;25.222;2022-12-07T02:06:41;100210.03;;;8.23;100.00
8641;BME280;4358;42.100;25.222;2022-12-07T02:09:09;100225.22;;;8.20;100.00
8641;BME280;4358;42.100;25.222;2022-12-07T02:11:36;100216.13;;;8.25;100.00
8641;BME280;4358;42.100;25.222;2022-12-07T02:14:03;100217.81;;;8.26;100.00
8641;BME280;4358;42.100;25.222;2022-12-07T02:16:38;100207.47;;;8.22;100.00
8641;BME280;4358;42.100;25.222;2022-12-07T02:22:22;100206.72;;;8.20;100.00
8641;BME280;4358;42.100;25.222;2022-12-07T02:24:59;100207.41;;;8.23;100.00
8641;BME280;4358;42.100;25.222;2022-12-07T02:27:41;100195.97;;;8.23;100.00
8641;BME280;4358;42.100;25.222;2022-12-07T02:30:14;100201.34;;;8.21;100.00
8641;BME280;4358;42.100;25.222;2022-12-07T02:32:51;100200.19;;;8.27;100.00
8641;BME280;4358;42.100;25.222;2022-12-07T02:35:28;100198.72;;;8.21;100.00
8641;BME280;4358;42.100;25.222;2022-12-07T02:38:03;100194.25;;;8.22;100.00
8641;BME280;4358;42.100;25.222;2022-12-07T02:40:38;100199.94;;;8.14;100.00
8641;BME280;4358;42.100;25.222;2022-12-07T02:43:09;100193.75;;;8.15;100.00
8641;BME280;4358;42.100;25.222;2022-12-07T02:45:41;100186.72;;;8.14;100.00
8641;BME280;4358;42.100;25.222;2022-12-07T02:48:10;100192.63;;;8.19;100.00
8641;BME280;4358;42.100;25.222;2022-12-07T02:50:38;100187.72;;;8.12;100.00
8641;BME280;4358;42.100;25.222;2022-12-07T02:53:05;100189.88;;;8.05;100.00
8641;BME280;4358;42.100;25.222;2022-12-07T02:55:36;100190.63;;;8.07;100.00
8641;BME280;4358;42.100;25.222;2022-12-07T02:58:24;100190.63;;;8.07;100.00
8641;BME280;4358;42.100;25.222;2022-12-07T03:01:06;100182.63;;;8.08;100.00
8641;BME280;4358;42.100;25.222;2022-12-07T03:03:37;100184.25;;;8.11;100.00
8641;BME280;4358;42.100;25.222;2022-12-07T03:06:10;100193.25;;;8.07;100.00
8641;BME280;4358;42.100;25.222;2022-12-07T03:08:51;100186.44;;;8.03;100.00
8641;BME280;4358;42.100;25.222;2022-12-07T03:11:23;100179.28;;;8.05;100.00
8641;BME280;4358;42.100;25.222;2022-12-07T03:13:57;100184.72;;;8.02;100.00
8641;BME280;4358;42.100;25.222;2022-12-07T03:16:31;100183.00;;;8.01;100.00
8641;BME280;4358;42.100;25.222;2022-12-07T03:19:02;100171.13;;;7.92;100.00
8641;BME280;4358;42.100;25.222;2022-12-07T03:21:33;100184.91;;;7.99;100.00
8641;BME280;4358;42.100;25.222;2022-12-07T03:24:05;100180.22;;;8.04;100.00
8641;BME280;4358;42.100;25.222;2022-12-07T03:26:36;100159.31;;;7.99;100.00
8641;BME280;4358;42.100;25.222;2022-12-07T03:29:08;100178.81;;;8.14;100.00
8641;BME280;4358;42.100;25.222;2022-12-07T03:31:41;100185.69;;;8.17;100.00
8641;BME280;4358;42.100;25.222;2022-12-07T03:34:14;100184.25;;;8.11;100.00
8641;BME280;4358;42.100;25.222;2022-12-07T03:36:46;100179.13;;;8.08;100.00
8641;BME280;4358;42.100;25.222;2022-12-07T03:39:19;100184.25;;;8.11;100.00
8641;BME280;4358;42.100;25.222;2022-12-07T03:41:49;100188.16;;;8.04;100.00
8641;BME280;4358;42.100;25.222;2022-12-07T03:44:18;100188.47;;;7.98;100.00
8641;BME280;4358;42.100;25.222;2022-12-07T03:46:52;100179.59;;;7.99;100.00
8641;BME280;4358;42.100;25.222;2022-12-07T03:49:26;100189.31;;;7.98;100.00
8641;BME280;4358;42.100;25.222;2022-12-07T03:51:59;100192.22;;;7.94;100.00
8641;BME280;4358;42.100;25.222;2022-12-07T03:54:31;100191.41;;;7.92;100.00
8641;BME280;4358;42.100;25.222;2022-12-07T03:57:01;100186.13;;;7.92;100.00
8641;BME280;4358;42.100;25.222;2022-12-07T03:59:29;100188.94;;;7.89;100.00
8641;BME280;4358;42.100;25.222;2022-12-07T04:02:07;100189.25;;;7.83;100.00
8641;BME280;4358;42.100;25.222;2022-12-07T04:04:34;100191.97;;;7.81;100.00
8641;BME280;4358;42.100;25.222;2022-12-07T04:07:01;100182.31;;;7.80;100.00
8641;BME280;4358;42.100;25.222;2022-12-07T04:09:28;100188.56;;;7.79;100.00
8641;BME280;4358;42.100;25.222;2022-12-07T04:11:55;100178.13;;;7.76;100.00
8641;BME280;4358;42.100;25.222;2022-12-07T04:14:22;100179.00;;;7.77;100.00
8641;BME280;4358;42.100;25.222;2022-12-07T04:16:50;100173.72;;;7.77;100.00
8641;BME280;4358;42.100;25.222;2022-12-07T04:19:20;100178.13;;;7.76;100.00
8641;BME280;4358;42.100;25.222;2022-12-07T04:21:48;100175.56;;;7.75;100.00
8641;BME280;4358;42.100;25.222;2022-12-07T04:24:15;100171.13;;;7.75;100.00
8641;BME280;4358;42.100;25.222;2022-12-07T04:26:43;100173.72;;;7.77;100.00
8641;BME280;4358;42.100;25.222;2022-12-07T04:29:10;100180.47;;;7.65;100.00
8641;BME280;4358;42.100;25.222;2022-12-07T04:31:37;100179.09;;;7.58;100.00
8641;BME280;4358;42.100;25.222;2022-12-07T04:34:05;100174.66;;;7.58;100.00
8641;BME280;4358;42.100;25.222;2022-12-07T04:36:34;100173.06;;;7.54;100.00
8641;BME280;4358;42.100;25.222;2022-12-07T04:39:01;100174.97;;;7.52;100.00
8641;BME280;4358;42.100;25.222;2022-12-07T04:41:28;100172.38;;;7.51;100.00
8641;BME280;4358;42.100;25.222;2022-12-07T04:43:55;100176.81;;;7.50;100.00
8641;BME280;4358;42.100;25.222;2022-12-07T04:46:22;100172.69;;;7.45;100.00
8641;BME280;4358;42.100;25.222;2022-12-07T04:48:49;100174.16;;;7.50;100.00
8641;BME280;4358;42.100;25.222;2022-12-07T04:51:19;100180.06;;;7.55;100.00
8641;BME280;4358;42.100;25.222;2022-12-07T04:53:48;100169.50;;;7.55;100.00
8641;BME280;4358;42.100;25.222;2022-12-07T04:56:15;100166.13;;;7.53;100.00
8641;BME280;4358;42.100;25.222;2022-12-07T04:58:44;100171.22;;;7.56;100.00
8641;BME280;4358;42.100;25.222;2022-12-07T05:01:11;100178.91;;;7.61;100.00
8641;BME280;4358;42.100;25.222;2022-12-07T05:03:39;100172.47;;;7.66;100.00
8641;BME280;4358;42.100;25.222;2022-12-07T05:06:06;100172.41;;;7.68;100.00
8641;BME280;4358;42.100;25.222;2022-12-07T05:08:34;100170.44;;;7.72;100.00
8641;BME280;4358;42.100;25.222;2022-12-07T05:11:03;100171.38;;;7.71;100.00
8641;BME280;4358;42.100;25.222;2022-12-07T05:13:31;100168.41;;;7.59;100.00
8641;BME280;4358;42.100;25.222;2022-12-07T05:15:58;100181.94;;;7.71;100.00
8641;BME280;4358;42.100;25.222;2022-12-07T05:18:25;100173.09;;;7.72;100.00
8641;BME280;4358;42.100;25.222;2022-12-07T05:20:52;100179.16;;;7.74;100.00
8641;BME280;4358;42.100;25.222;2022-12-07T05:23:19;100173.88;;;7.74;100.00
8641;BME280;4358;42.100;25.222;2022-12-07T05:25:46;100179.16;;;7.74;100.00
8641;BME280;4358;42.100;25.222;2022-12-07T05:28:14;100179.78;;;7.61;100.00
8641;BME280;4358;42.100;25.222;2022-12-07T05:30:41;100174.66;;;7.58;100.00
8641;BME280;4358;42.100;25.222;2022-12-07T05:33:08;100177.66;;;7.51;100.00
8641;BME280;4358;42.100;25.222;2022-12-07T05:35:35;100179.00;;;7.42;100.00
8641;BME280;4358;42.100;25.222;2022-12-07T05:38:03;100173.72;;;7.42;100.00
8641;BME280;4358;42.100;25.222;2022-12-07T05:40:30;100161.91;;;7.32;100.00
8641;BME280;4358;42.100;25.222;2022-12-07T05:42:57;100166.84;;;7.38;100.00
8641;BME280;4358;42.100;25.222;2022-12-07T05:45:25;100181.69;;;7.41;100.00
8641;BME280;4358;42.100;25.222;2022-12-07T05:47:52;100178.59;;;7.33;100.00
8641;BME280;4358;42.100;25.222;2022-12-07T05:50:18;100181.31;;;7.31;100.00
8641;BME280;4358;42.100;25.222;2022-12-07T05:52:45;100181.59;;;7.25;100.00
8641;BME280;4358;42.100;25.222;2022-12-07T05:55:13;100187.66;;;7.27;100.00
8641;BME280;4358;42.100;25.222;2022-12-07T05:57:40;100187.66;;;7.27;100.00
8641;BME280;4358;42.100;25.222;2022-12-07T06:00:29;100184.47;;;7.20;100.00
8641;BME280;4358;42.100;25.222;2022-12-07T06:02:55;100185.97;;;7.26;100.00
8641;BME280;4358;42.100;25.222;2022-12-07T06:05:22;100181.25;;;7.33;100.00
8641;BME280;4358;42.100;25.222;2022-12-07T06:07:49;100187.84;;;7.41;100.00
8641;BME280;4358;42.100;25.222;2022-12-07T06:10:16;100192.97;;;7.44;100.00
8641;BME280;4358;42.100;25.222;2022-12-07T06:12:43;100192.09;;;7.44;100.00
8641;BME280;4358;42.100;25.222;2022-12-07T06:15:11;100189.78;;;7.55;100.00
8641;BME280;4358;42.100;25.222;2022-12-07T06:17:40;100185.13;;;7.60;100.00
8641;BME280;4358;42.100;25.222;2022-12-07T06:20:08;100182.72;;;7.55;100.00
8641;BME280;4358;42.100;25.222;2022-12-07T06:22:34;100184.13;;;7.62;100.00
8641;BME280;4358;42.100;25.222;2022-12-07T06:25:01;100188.31;;;7.66;100.00
8641;BME280;4358;42.100;25.222;2022-12-07T06:27:29;100184.59;;;7.71;100.00
8641;BME280;4358;42.100;25.222;2022-12-07T06:29:58;100197.25;;;7.81;100.00
8641;BME280;4358;42.100;25.222;2022-12-07T06:32:25;100201.28;;;7.71;100.00
8641;BME280;4358;42.100;25.222;2022-12-07T06:34:53;100198.09;;;7.82;100.00
8641;BME280;4358;42.100;25.222;2022-12-07T06:37:20;100197.50;;;7.94;100.00
8641;BME280;4358;42.100;25.222;2022-12-07T06:39:47;100191.91;;;8.00;100.00
8641;BME280;4358;42.100;25.222;2022-12-07T06:42:13;100201.38;;;8.04;100.00
8641;BME280;4358;42.100;25.222;2022-12-07T06:44:40;100193.81;;;8.14;100.00
8641;BME280;4358;42.100;25.222;2022-12-07T06:47:07;100192.81;;;8.16;100.00
8641;BME280;4358;42.100;25.222;2022-12-07T06:49:34;100199.63;;;8.20;100.00
8641;BME280;4358;42.100;25.222;2022-12-07T06:52:03;100201.66;;;8.15;100.00
8641;BME280;4358;42.100;25.222;2022-12-07T06:54:31;100206.78;;;8.18;100.00
8641;BME280;4358;42.100;25.222;2022-12-07T06:56:58;100198.47;;;8.26;100.00
8641;BME280;4358;42.100;25.222;2022-12-07T06:59:25;100201.09;;;8.26;100.00
8641;BME280;4358;42.100;25.222;2022-12-07T07:01:51;100201.75;;;8.14;100.00
8641;BME280;4358;42.100;25.222;2022-12-07T07:04:18;100203.53;;;8.13;100.00
8641;BME280;4358;42.100;25.222;2022-12-07T07:06:45;100212.69;;;8.06;100.00
8641;BME280;4358;42.100;25.222;2022-12-07T07:09:14;100205.56;;;8.08;100.00
8641;BME280;4358;42.100;25.222;2022-12-07T07:11:40;100199.03;;;7.98;100.00
8641;BME280;4358;42.100;25.222;2022-12-07T07:14:07;100202.28;;;8.03;100.00
8641;BME280;4358;42.100;25.222;2022-12-07T07:16:34;100205.88;;;8.02;100.00
8641;BME280;4358;42.100;25.222;2022-12-07T07:19:01;100204.63;;;8.09;100.00
8641;BME280;4358;42.100;25.222;2022-12-07T07:21:28;100198.88;;;8.01;100.00
8641;BME280;4358;42.100;25.222;2022-12-07T07:23:55;100206.47;;;8.07;100.00
8641;BME280;4358;42.100;25.222;2022-12-07T07:26:23;100204.31;;;7.98;100.00
8641;BME280;4358;42.100;25.222;2022-12-07T07:28:50;100200.34;;;8.06;100.00
8641;BME280;4358;42.100;25.222;2022-12-07T07:31:17;100196.63;;;8.11;100.00
8641;BME280;4358;42.100;25.222;2022-12-07T07:33:45;100202.44;;;8.17;100.00
8641;BME280;4358;42.100;25.222;2022-12-07T07:36:11;100201.34;;;8.21;100.00
8641;BME280;4358;42.100;25.222;2022-12-07T07:38:38;100202.88;;;8.25;100.00
8641;BME280;4358;42.100;25.222;2022-12-07T07:41:05;100195.59;;;8.30;100.00
8641;BME280;4358;42.100;25.222;2022-12-07T07:43:33;100202.72;;;8.28;100.00
8641;BME280;4358;42.100;25.222;2022-12-07T07:46:00;100207.72;;;8.34;100.00
8641;BME280;4358;42.100;25.222;2022-12-07T07:48:27;100214.56;;;8.38;100.00
8641;BME280;4358;42.100;25.222;2022-12-07T07:50:54;100218.13;;;8.37;100.00
8641;BME280;4358;42.100;25.222;2022-12-07T07:53:21;100215.94;;;8.45;100.00
8641;BME280;4358;42.100;25.222;2022-12-07T07:55:51;100206.22;;;8.46;100.00
8641;BME280;4358;42.100;25.222;2022-12-07T07:58:19;100219.19;;;8.50;100.00
8641;BME280;4358;42.100;25.222;2022-12-07T08:00:48;100219.13;;;8.52;100.00
8641;BME280;4358;42.100;25.222;2022-12-07T08:03:15;100217.66;;;8.46;100.00
8641;BME280;4358;42.100;25.222;2022-12-07T08:05:42;100212.63;;;8.42;100.00
8641;BME280;4358;42.100;25.222;2022-12-07T08:08:09;100216.44;;;8.36;100.00
8641;BME280;4358;42.100;25.222;2022-12-07T08:10:36;100214.56;;;8.38;100.00
8641;BME280;4358;42.100;25.222;2022-12-07T08:13:03;100212.69;;;8.40;100.00
8641;BME280;4358;42.100;25.222;2022-12-07T08:15:41;100214.09;;;8.47;100.00
8641;BME280;4358;42.100;25.222;2022-12-07T08:18:10;100218.88;;;8.57;100.00
8641;BME280;4358;42.100;25.222;2022-12-07T08:20:38;100224.00;;;8.60;100.00
8641;BME280;4358;42.100;25.222;2022-12-07T08:23:06;100216.84;;;8.62;100.00
8641;BME280;4358;42.100;25.222;2022-12-07T08:25:33;100212.41;;;8.62;100.00
8641;BME280;4358;42.100;25.222;2022-12-07T08:28:00;100210.19;;;8.70;100.00
8641;BME280;4358;42.100;25.222;2022-12-07T08:30:27;100212.94;;;8.84;100.00
8641;BME280;4358;42.100;25.222;2022-12-07T08:32:55;100219.19;;;8.99;100.00
8641;BME280;4358;42.100;25.222;2022-12-07T08:35:24;100217.03;;;9.06;100.00
8641;BME280;4358;42.100;25.222;2022-12-07T08:37:51;100220.28;;;9.11;100.00
8641;BME280;4358;42.100;25.222;2022-12-07T08:40:18;100205.25;;;9.11;100.00
8641;BME280;4358;42.100;25.222;2022-12-07T08:42:49;100222.16;;;9.24;100.00
8641;BME280;4358;42.100;25.222;2022-12-07T08:45:16;100218.25;;;9.31;100.00
8641;BME280;4358;42.100;25.222;2022-12-07T08:47:48;100209.59;;;9.28;100.00
8641;BME280;4358;42.100;25.222;2022-12-07T08:50:17;100208.13;;;9.38;100.00
8641;BME280;4358;42.100;25.222;2022-12-07T08:52:48;100207.50;;;9.49;100.00
8641;BME280;4358;42.100;25.222;2022-12-07T08:55:16;100214.09;;;9.57;100.00
8641;BME280;4358;42.100;25.222;2022-12-07T08:57:43;100207.41;;;9.66;100.00
8641;BME280;4358;42.100;25.222;2022-12-07T09:00:11;100200.34;;;9.81;100.00
8641;BME280;4358;42.100;25.222;2022-12-07T09:02:38;100201.38;;;9.78;100.00
8641;BME280;4358;42.100;25.222;2022-12-07T09:05:06;100189.56;;;9.84;100.00
8641;BME280;4358;42.100;25.222;2022-12-07T09:07:33;100179.94;;;9.97;100.00
8641;BME280;4358;42.100;25.222;2022-12-07T09:10:03;100176.50;;;9.95;100.00
8641;BME280;4358;42.100;25.222;2022-12-07T09:12:30;100181.81;;;9.95;100.00
8641;BME280;4358;42.100;25.222;2022-12-07T09:14:56;100180.97;;;9.94;100.00
8641;BME280;4358;42.100;25.222;2022-12-07T09:17:23;100173.78;;;10.10;100.00
8641;BME280;4358;42.100;25.222;2022-12-07T09:19:50;100170.31;;;10.10;100.00
8641;BME280;4358;42.100;25.222;2022-12-07T09:22:17;100176.44;;;10.10;100.00
8641;BME280;4358;42.100;25.222;2022-12-07T09:24:44;100169.16;;;10.14;100.00
8641;BME280;4358;42.100;25.222;2022-12-07T09:27:12;100164.31;;;10.06;100.00
8641;BME280;4358;42.100;25.222;2022-12-07T09:29:39;100158.88;;;10.24;100.00
8641;BME280;4358;42.100;25.222;2022-12-07T09:32:06;100155.28;;;10.39;100.00
8641;BME280;4358;42.100;25.222;2022-12-07T09:34:33;100162.00;;;10.44;100.00
8641;BME280;4358;42.100;25.222;2022-12-07T09:37:00;100155.63;;;10.61;100.00
8641;BME280;4358;42.100;25.222;2022-12-07T09:39:28;100147.94;;;10.71;100.00
8641;BME280;4358;42.100;25.222;2022-12-07T09:41:57;100145.63;;;10.93;100.00
8641;BME280;4358;42.100;25.222;2022-12-07T09:44:27;100143.69;;;11.09;100.00
8641;BME280;4358;42.100;25.222;2022-12-07T09:46:54;100145.56;;;11.34;100.00
8641;BME280;4358;42.100;25.222;2022-12-07T09:49:24;100144.53;;;11.49;100.00
8641;BME280;4358;42.100;25.222;2022-12-07T09:52:01;100141.34;;;11.57;100.00
8641;BME280;4358;42.100;25.222;2022-12-07T09:54:29;100136.16;;;11.55;100.00
8641;BME280;4358;42.100;25.222;2022-12-07T09:56:56;100138.19;;;11.64;100.00
8641;BME280;4358;42.100;25.222;2022-12-07T09:59:26;100128.88;;;11.71;100.00
8641;BME280;4358;42.100;25.222;2022-12-07T10:01:53;100125.81;;;11.77;100.00
8641;BME280;4358;42.100;25.222;2022-12-07T10:04:21;100117.94;;;11.88;100.00
8641;BME280;4358;42.100;25.222;2022-12-07T10:06:50;100102.72;;;11.91;100.00
8641;BME280;4358;42.100;25.222;2022-12-07T10:09:20;100103.38;;;12.07;100.00
8641;BME280;4358;42.100;25.222;2022-12-07T10:12:05;100110.50;;;12.19;100.00
8641;BME280;4358;42.100;25.222;2022-12-07T10:14:35;100096.75;;;12.25;100.00
8641;BME280;4358;42.100;25.222;2022-12-07T10:17:33;100113.31;;;12.41;100.00
8641;BME280;4358;42.100;25.222;2022-12-07T10:20:20;100106.63;;;12.48;100.00
8641;BME280;4358;42.100;25.222;2022-12-07T10:22:56;100107.25;;;12.52;100.00
8641;BME280;4358;42.100;25.222;2022-12-07T10:25:26;100107.75;;;12.69;100.00
8641;BME280;4358;42.100;25.222;2022-12-07T10:28:02;100103.44;;;12.80;100.00
8641;BME280;4358;42.100;25.222;2022-12-07T10:30:49;100110.81;;;13.00;100.00
8641;BME280;4358;42.100;25.222;2022-12-07T10:33:36;100102.72;;;13.01;100.00
8641;BME280;4358;42.100;25.222;2022-12-07T10:36:19;100109.09;;;13.11;100.00
8641;BME280;4358;42.100;25.222;2022-12-07T10:38:48;100107.03;;;12.91;100.00
8641;BME280;4358;42.100;25.222;2022-12-07T10:41:16;100105.03;;;13.06;100.00
8641;BME280;4358;42.100;25.222;2022-12-07T10:43:53;100101.97;;;13.12;100.00
8641;BME280;4358;42.100;25.222;2022-12-07T10:46:46;100093.78;;;13.02;100.00
8641;BME280;4358;42.100;25.222;2022-12-07T10:50:02;100095.13;;;12.84;100.00
8641;BME280;4358;42.100;25.222;2022-12-07T10:52:56;100093.44;;;13.07;100.00
8641;BME280;4358;42.100;25.222;2022-12-07T10:55:29;100103.28;;;12.94;100.00
8641;BME280;4358;42.100;25.222;2022-12-07T10:58:17;100099.94;;;13.03;100.00
8641;BME280;4358;42.100;25.222;2022-12-07T11:00:56;100097.22;;;12.92;100.00
8641;BME280;4358;42.100;25.222;2022-12-07T11:03:40;100098.44;;;12.99;100.00
8641;BME280;4358;42.100;25.222;2022-12-07T11:06:16;100096.38;;;13.15;100.00
8641;BME280;4358;42.100;25.222;2022-12-07T11:09:00;100089.19;;;13.28;100.00
8641;BME280;4358;42.100;25.222;2022-12-07T11:11:33;100088.00;;;13.32;100.00
8641;BME280;4358;42.100;25.222;2022-12-07T11:14:09;100084.88;;;13.38;100.00
8641;BME280;4358;42.100;25.222;2022-12-07T11:16:52;100089.84;;;13.43;100.00
8641;BME280;4358;42.100;25.222;2022-12-07T11:22:20;100064.75;;;13.45;100.00
8641;BME280;4358;42.100;25.222;2022-12-07T11:24:56;100065.25;;;13.39;100.00
8641;BME280;4358;42.100;25.222;2022-12-07T11:27:34;100059.53;;;13.33;100.00
8641;BME280;4358;42.100;25.222;2022-12-07T11:30:10;100056.75;;;13.34;100.00
8641;BME280;4358;42.100;25.222;2022-12-07T11:32:50;100055.03;;;13.33;100.00
8641;BME280;4358;42.100;25.222;2022-12-07T11:35:24;100058.66;;;13.32;100.00
8641;BME280;4358;42.100;25.222;2022-12-07T11:37:57;100050.06;;;13.29;100.00
8641;BME280;4358;42.100;25.222;2022-12-07T11:40:29;100047.41;;;13.29;100.00
8641;BME280;4358;42.100;25.222;2022-12-07T11:43:04;100048.38;;;13.28;100.00
8641;BME280;4358;42.100;25.222;2022-12-07T11:45:33;100050.88;;;13.18;100.00
8641;BME280;4358;42.100;25.222;2022-12-07T11:48:03;100042.25;;;13.14;100.00
8641;BME280;4358;42.100;25.222;2022-12-07T11:50:36;100036.91;;;13.14;100.00
8641;BME280;4358;42.100;25.222;2022-12-07T11:53:10;100035.09;;;13.15;100.00
8641;BME280;4358;42.100;25.222;2022-12-07T11:55:43;100015.72;;;13.13;100.00
8641;BME280;4358;42.100;25.222;2022-12-07T11:58:22;100028.47;;;13.21;100.00
8641;BME280;4358;42.100;25.222;2022-12-07T12:00:55;100027.84;;;13.17;100.00
8641;BME280;4358;42.100;25.222;2022-12-07T12:03:30;100023.06;;;13.09;100.00
8641;BME280;4358;42.100;25.222;2022-12-07T12:06:02;100012.63;;;13.06;100.00
8641;BME280;4358;42.100;25.222;2022-12-07T12:08:34;100013.00;;;13.02;100.00
8641;BME280;4358;42.100;25.222;2022-12-07T12:11:10;100007.66;;;13.02;100.00
8641;BME280;4358;42.100;25.222;2022-12-07T12:17:13;99991.81;;;12.77;100.00
8641;BME280;4358;42.100;25.222;2022-12-07T12:19:58;99990.31;;;12.72;100.00
8641;BME280;4358;42.100;25.222;2022-12-07T12:22:34;99987.91;;;12.69;100.00
8641;BME280;4358;42.100;25.222;2022-12-07T12:25:05;99990.72;;;12.79;100.00
8641;BME280;4358;42.100;25.222;2022-12-07T12:27:34;99994.75;;;12.85;100.00
8641;BME280;4358;42.100;25.222;2022-12-07T12:30:04;99981.53;;;12.83;100.00
8641;BME280;4358;42.100;25.222;2022-12-07T12:32:36;99987.66;;;12.96;100.00
8641;BME280;4358;42.100;25.222;2022-12-07T12:35:26;99994.78;;;12.96;100.00
8641;BME280;4358;42.100;25.222;2022-12-07T12:38:27;99988.97;;;12.91;100.00
8641;BME280;4358;42.100;25.222;2022-12-07T12:40:54;99983.63;;;12.91;100.00
8641;BME280;4358;42.100;25.222;2022-12-07T12:43:47;99998.31;;;12.96;100.00
8641;BME280;4358;42.100;25.222;2022-12-07T12:46:50;99997.34;;;12.97;100.00
8641;BME280;4358;42.100;25.222;2022-12-07T12:52:49;99987.88;;;12.93;100.00
8641;BME280;4358;42.100;25.222;2022-12-07T12:55:25;99986.56;;;12.99;100.00
8641;BME280;4358;42.100;25.222;2022-12-07T12:58:30;99990.94;;;13.00;100.00
8641;BME280;4358;42.100;25.222;2022-12-07T13:04:49;99991.88;;;12.99;100.00
8641;BME280;4358;42.100;25.222;2022-12-07T13:10:42;99979.91;;;12.69;100.00
8641;BME280;4358;42.100;25.222;2022-12-07T13:13:29;99987.75;;;12.60;100.00
8641;BME280;4358;42.100;25.222;2022-12-07T13:18:56;99983.72;;;12.54;100.00
8641;BME280;4358;42.100;25.222;2022-12-07T13:21:43;99984.16;;;12.48;100.00
8641;BME280;4358;42.100;25.222;2022-12-07T13:24:12;99981.09;;;12.42;100.00
8641;BME280;4358;42.100;25.222;2022-12-07T13:26:42;99980.06;;;12.31;100.00
8641;BME280;4358;42.100;25.222;2022-12-07T13:29:12;99978.78;;;12.37;100.00
8641;BME280;4358;42.100;25.222;2022-12-07T13:31:41;99979.19;;;12.44;100.00
8641;BME280;4358;42.100;25.222;2022-12-07T13:34:29;99979.34;;;12.53;100.00
8641;BME280;4358;42.100;25.222;2022-12-07T13:36:56;99977.88;;;12.49;100.00
8641;BME280;4358;42.100;25.222;2022-12-07T13:39:26;99977.47;;;12.43;100.00